sensor_id;sensor_type;location;lat;lon;timestamp;P1;durP1;ratioP1;P2;durP2;ratioP2
16320;SDS011;8269;50.990;4.494;2023-07-09T00:00:01;11.48;;;7.10;;
16320;SDS011;8269;50.990;4.494;2023-07-09T00:02:27;10.77;;;7.35;;
16320;SDS011;8269;50.990;4.494;2023-07-09T00:04:53;9.52;;;7.18;;
16320;SDS011;8269;50.990;4.494;2023-07-09T00:09:45;10.45;;;7.25;;
16320;SDS011;8269;50.990;4.494;2023-07-09T00:12:15;11.48;;;7.20;;
16320;SDS011;8269;50.990;4.494;2023-07-09T00:14:41;11.55;;;7.43;;
16320;SDS011;8269;50.990;4.494;2023-07-09T00:17:09;9.88;;;7.88;;
16320;SDS011;8269;50.990;4.494;2023-07-09T00:19:36;10.80;;;7.13;;
16320;SDS011;8269;50.990;4.494;2023-07-09T00:22:12;10.70;;;7.55;;
16320;SDS011;8269;50.990;4.494;2023-07-09T00:24:41;9.60;;;7.15;;
16320;SDS011;8269;50.990;4.494;2023-07-09T00:27:09;10.65;;;7.75;;
16320;SDS011;8269;50.990;4.494;2023-07-09T00:29:35;10.98;;;7.57;;
16320;SDS011;8269;50.990;4.494;2023-07-09T00:32:01;9.27;;;7.75;;
16320;SDS011;8269;50.990;4.494;2023-07-09T00:34:27;10.60;;;7.93;;
16320;SDS011;8269;50.990;4.494;2023-07-09T00:36:53;8.88;;;7.28;;
16320;SDS011;8269;50.990;4.494;2023-07-09T00:39:20;9.20;;;8.00;;
16320;SDS011;8269;50.990;4.494;2023-07-09T00:41:47;8.98;;;7.63;;
16320;SDS011;8269;50.990;4.494;2023-07-09T00:49:11;12.18;;;7.43;;
16320;SDS011;8269;50.990;4.494;2023-07-09T00:51:42;9.40;;;7.47;;
16320;SDS011;8269;50.990;4.494;2023-07-09T00:54:27;10.88;;;7.70;;
16320;SDS011;8269;50.990;4.494;2023-07-09T00:56:55;8.65;;;6.72;;
16320;SDS011;8269;50.990;4.494;2023-07-09T00:59:24;10.60;;;7.82;;
16320;SDS011;8269;50.990;4.494;2023-07-09T01:01:53;9.70;;;7.88;;
16320;SDS011;8269;50.990;4.494;2023-07-09T01:04:20;10.90;;;8.43;;
16320;SDS011;8269;50.990;4.494;2023-07-09T01:06:50;11.10;;;8.30;;
16320;SDS011;8269;50.990;4.494;2023-07-09T01:09:16;11.02;;;8.10;;
16320;SDS011;8269;50.990;4.494;2023-07-09T01:11:43;13.20;;;7.97;;
16320;SDS011;8269;50.990;4.494;2023-07-09T01:14:17;10.93;;;8.48;;
16320;SDS011;8269;50.990;4.494;2023-07-09T01:16:46;10.65;;;8.40;;
16320;SDS011;8269;50.990;4.494;2023-07-09T01:19:14;13.90;;;8.55;;
16320;SDS011;8269;50.990;4.494;2023-07-09T01:21:41;13.15;;;8.15;;
16320;SDS011;8269;50.990;4.494;2023-07-09T01:24:51;10.27;;;8.35;;
16320;SDS011;8269;50.990;4.494;2023-07-09T01:27:00;11.50;;;8.38;;
16320;SDS011;8269;50.990;4.494;2023-07-09T01:29:30;11.00;;;8.43;;
16320;SDS011;8269;50.990;4.494;2023-07-09T01:31:56;11.45;;;8.90;;
16320;SDS011;8269;50.990;4.494;2023-07-09T01:34:23;10.13;;;8.45;;
16320;SDS011;8269;50.990;4.494;2023-07-09T01:36:49;13.63;;;8.85;;
16320;SDS011;8269;50.990;4.494;2023-07-09T01:39:16;11.77;;;8.60;;
16320;SDS011;8269;50.990;4.494;2023-07-09T01:41:43;11.73;;;8.98;;
16320;SDS011;8269;50.990;4.494;2023-07-09T01:44:11;11.45;;;9.40;;
16320;SDS011;8269;50.990;4.494;2023-07-09T01:46:38;10.63;;;8.95;;
16320;SDS011;8269;50.990;4.494;2023-07-09T01:49:04;13.13;;;8.68;;
16320;SDS011;8269;50.990;4.494;2023-07-09T01:51:33;12.05;;;8.43;;
16320;SDS011;8269;50.990;4.494;2023-07-09T01:54:01;13.77;;;9.15;;
16320;SDS011;8269;50.990;4.494;2023-07-09T01:56:27;11.93;;;8.95;;
16320;SDS011;8269;50.990;4.494;2023-07-09T01:58:54;10.38;;;9.07;;
16320;SDS011;8269;50.990;4.494;2023-07-09T02:01:26;9.30;;;7.72;;
16320;SDS011;8269;50.990;4.494;2023-07-09T02:03:52;9.98;;;7.97;;
16320;SDS011;8269;50.990;4.494;2023-07-09T02:06:18;11.43;;;8.95;;
16320;SDS011;8269;50.990;4.494;2023-07-09T02:08:45;11.05;;;8.48;;
16320;SDS011;8269;50.990;4.494;2023-07-09T02:11:11;12.68;;;8.10;;
16320;SDS011;8269;50.990;4.494;2023-07-09T02:13:37;12.73;;;9.00;;
16320;SDS011;8269;50.990;4.494;2023-07-09T02:16:03;12.10;;;8.82;;
16320;SDS011;8269;50.990;4.494;2023-07-09T02:18:29;13.07;;;8.93;;
16320;SDS011;8269;50.990;4.494;2023-07-09T02:20:55;11.02;;;8.55;;
16320;SDS011;8269;50.990;4.494;2023-07-09T02:23:25;12.05;;;8.55;;
16320;SDS011;8269;50.990;4.494;2023-07-09T02:25:52;12.85;;;7.53;;
16320;SDS011;8269;50.990;4.494;2023-07-09T02:28:18;10.85;;;7.82;;
16320;SDS011;8269;50.990;4.494;2023-07-09T02:30:44;9.85;;;8.38;;
16320;SDS011;8269;50.990;4.494;2023-07-09T02:33:10;9.68;;;7.55;;
16320;SDS011;8269;50.990;4.494;2023-07-09T02:35:36;10.05;;;8.38;;
16320;SDS011;8269;50.990;4.494;2023-07-09T02:38:03;11.35;;;7.72;;
16320;SDS011;8269;50.990;4.494;2023-07-09T02:40:29;12.25;;;8.32;;
16320;SDS011;8269;50.990;4.494;2023-07-09T02:42:55;10.07;;;8.05;;
16320;SDS011;8269;50.990;4.494;2023-07-09T02:45:21;11.00;;;8.18;;
16320;SDS011;8269;50.990;4.494;2023-07-09T02:47:47;11.43;;;7.57;;
16320;SDS011;8269;50.990;4.494;2023-07-09T02:50:13;10.75;;;8.07;;
16320;SDS011;8269;50.990;4.494;2023-07-09T02:52:40;12.55;;;8.20;;
16320;SDS011;8269;50.990;4.494;2023-07-09T02:55:07;11.07;;;7.68;;
16320;SDS011;8269;50.990;4.494;2023-07-09T02:57:33;11.55;;;8.75;;
16320;SDS011;8269;50.990;4.494;2023-07-09T02:59:59;11.85;;;8.05;;
16320;SDS011;8269;50.990;4.494;2023-07-09T03:02:26;13.90;;;8.07;;
16320;SDS011;8269;50.990;4.494;2023-07-09T03:04:52;9.77;;;7.63;;
16320;SDS011;8269;50.990;4.494;2023-07-09T03:07:18;13.70;;;8.00;;
16320;SDS011;8269;50.990;4.494;2023-07-09T03:09:44;9.85;;;7.68;;
16320;SDS011;8269;50.990;4.494;2023-07-09T03:12:10;10.45;;;7.60;;
16320;SDS011;8269;50.990;4.494;2023-07-09T03:14:37;10.98;;;7.95;;
16320;SDS011;8269;50.990;4.494;2023-07-09T03:17:03;11.15;;;7.57;;
16320;SDS011;8269;50.990;4.494;2023-07-09T03:19:29;10.35;;;7.47;;
16320;SDS011;8269;50.990;4.494;2023-07-09T03:21:55;10.50;;;7.38;;
16320;SDS011;8269;50.990;4.494;2023-07-09T03:24:21;10.15;;;6.97;;
16320;SDS011;8269;50.990;4.494;2023-07-09T03:26:47;11.30;;;7.07;;
16320;SDS011;8269;50.990;4.494;2023-07-09T03:29:13;11.07;;;6.90;;
16320;SDS011;8269;50.990;4.494;2023-07-09T03:31:39;8.18;;;6.68;;
16320;SDS011;8269;50.990;4.494;2023-07-09T03:34:05;10.70;;;7.28;;
16320;SDS011;8269;50.990;4.494;2023-07-09T03:36:31;10.38;;;7.30;;
16320;SDS011;8269;50.990;4.494;2023-07-09T03:38:57;9.88;;;6.75;;
16320;SDS011;8269;50.990;4.494;2023-07-09T03:41:24;9.45;;;6.93;;
16320;SDS011;8269;50.990;4.494;2023-07-09T03:43:50;11.18;;;6.80;;
16320;SDS011;8269;50.990;4.494;2023-07-09T03:46:18;10.10;;;7.28;;
16320;SDS011;8269;50.990;4.494;2023-07-09T03:48:44;9.20;;;6.50;;
16320;SDS011;8269;50.990;4.494;2023-07-09T03:51:10;11.13;;;6.85;;
16320;SDS011;8269;50.990;4.494;2023-07-09T03:53:36;10.98;;;6.78;;
16320;SDS011;8269;50.990;4.494;2023-07-09T03:56:02;10.50;;;6.65;;
16320;SDS011;8269;50.990;4.494;2023-07-09T03:58:28;10.68;;;6.38;;
16320;SDS011;8269;50.990;4.494;2023-07-09T04:00:55;9.65;;;7.28;;
16320;SDS011;8269;50.990;4.494;2023-07-09T04:03:21;9.52;;;6.93;;
16320;SDS011;8269;50.990;4.494;2023-07-09T04:05:47;8.73;;;7.03;;
16320;SDS011;8269;50.990;4.494;2023-07-09T04:08:14;11.18;;;6.85;;
16320;SDS011;8269;50.990;4.494;2023-07-09T04:10:40;12.10;;;7.03;;
16320;SDS011;8269;50.990;4.494;2023-07-09T04:13:06;9.68;;;7.07;;
16320;SDS011;8269;50.990;4.494;2023-07-09T04:15:32;11.45;;;7.03;;
16320;SDS011;8269;50.990;4.494;2023-07-09T04:17:58;12.32;;;7.38;;
16320;SDS011;8269;50.990;4.494;2023-07-09T04:20:24;10.68;;;7.10;;
16320;SDS011;8269;50.990;4.494;2023-07-09T04:22:50;12.02;;;6.50;;
16320;SDS011;8269;50.990;4.494;2023-07-09T04:25:17;12.57;;;7.13;;
16320;SDS011;8269;50.990;4.494;2023-07-09T04:27:43;10.73;;;7.53;;
16320;SDS011;8269;50.990;4.494;2023-07-09T04:30:09;9.50;;;6.90;;
16320;SDS011;8269;50.990;4.494;2023-07-09T04:32:36;11.70;;;6.82;;
16320;SDS011;8269;50.990;4.494;2023-07-09T04:35:02;12.98;;;7.38;;
16320;SDS011;8269;50.990;4.494;2023-07-09T04:37:31;8.77;;;6.65;;
16320;SDS011;8269;50.990;4.494;2023-07-09T04:39:58;10.27;;;7.07;;
16320;SDS011;8269;50.990;4.494;2023-07-09T04:42:24;9.35;;;7.03;;
16320;SDS011;8269;50.990;4.494;2023-07-09T04:44:50;12.93;;;7.60;;
16320;SDS011;8269;50.990;4.494;2023-07-09T04:47:16;9.50;;;6.90;;
16320;SDS011;8269;50.990;4.494;2023-07-09T04:49:42;10.20;;;6.70;;
16320;SDS011;8269;50.990;4.494;2023-07-09T04:52:08;10.38;;;6.88;;
16320;SDS011;8269;50.990;4.494;2023-07-09T04:54:39;11.85;;;6.47;;
16320;SDS011;8269;50.990;4.494;2023-07-09T04:57:09;8.70;;;6.53;;
16320;SDS011;8269;50.990;4.494;2023-07-09T04:59:35;8.85;;;6.30;;
16320;SDS011;8269;50.990;4.494;2023-07-09T05:02:01;8.98;;;6.32;;
16320;SDS011;8269;50.990;4.494;2023-07-09T05:04:27;10.55;;;7.28;;
16320;SDS011;8269;50.990;4.494;2023-07-09T05:06:53;11.45;;;6.80;;
16320;SDS011;8269;50.990;4.494;2023-07-09T05:09:19;9.50;;;6.57;;
16320;SDS011;8269;50.990;4.494;2023-07-09T05:11:44;9.73;;;6.35;;
16320;SDS011;8269;50.990;4.494;2023-07-09T05:14:11;10.05;;;7.35;;
16320;SDS011;8269;50.990;4.494;2023-07-09T05:16:36;9.20;;;6.75;;
16320;SDS011;8269;50.990;4.494;2023-07-09T05:19:02;10.85;;;6.65;;
16320;SDS011;8269;50.990;4.494;2023-07-09T05:21:28;7.88;;;6.18;;
16320;SDS011;8269;50.990;4.494;2023-07-09T05:23:53;9.15;;;6.63;;
16320;SDS011;8269;50.990;4.494;2023-07-09T05:26:19;9.32;;;6.80;;
16320;SDS011;8269;50.990;4.494;2023-07-09T05:28:45;9.35;;;6.45;;
16320;SDS011;8269;50.990;4.494;2023-07-09T05:31:10;8.80;;;6.78;;
16320;SDS011;8269;50.990;4.494;2023-07-09T05:33:37;7.82;;;6.03;;
16320;SDS011;8269;50.990;4.494;2023-07-09T05:36:02;7.85;;;6.40;;
16320;SDS011;8269;50.990;4.494;2023-07-09T05:38:28;9.20;;;6.90;;
16320;SDS011;8269;50.990;4.494;2023-07-09T05:41:01;9.30;;;6.40;;
16320;SDS011;8269;50.990;4.494;2023-07-09T05:43:29;8.57;;;6.25;;
16320;SDS011;8269;50.990;4.494;2023-07-09T05:45:55;11.20;;;6.85;;
16320;SDS011;8269;50.990;4.494;2023-07-09T05:48:21;9.18;;;5.90;;
16320;SDS011;8269;50.990;4.494;2023-07-09T05:50:47;9.40;;;6.03;;
16320;SDS011;8269;50.990;4.494;2023-07-09T05:53:13;9.20;;;6.30;;
16320;SDS011;8269;50.990;4.494;2023-07-09T05:55:39;8.15;;;5.80;;
16320;SDS011;8269;50.990;4.494;2023-07-09T05:58:04;12.98;;;6.65;;
16320;SDS011;8269;50.990;4.494;2023-07-09T06:00:30;9.20;;;6.65;;
16320;SDS011;8269;50.990;4.494;2023-07-09T06:02:56;10.10;;;5.88;;
16320;SDS011;8269;50.990;4.494;2023-07-09T06:05:22;9.50;;;6.30;;
16320;SDS011;8269;50.990;4.494;2023-07-09T06:07:48;10.65;;;6.60;;
16320;SDS011;8269;50.990;4.494;2023-07-09T06:10:13;9.57;;;6.13;;
16320;SDS011;8269;50.990;4.494;2023-07-09T06:12:40;9.02;;;6.20;;
16320;SDS011;8269;50.990;4.494;2023-07-09T06:15:06;8.20;;;5.90;;
16320;SDS011;8269;50.990;4.494;2023-07-09T06:17:32;9.48;;;5.90;;
16320;SDS011;8269;50.990;4.494;2023-07-09T06:19:57;9.40;;;6.28;;
16320;SDS011;8269;50.990;4.494;2023-07-09T06:22:23;8.20;;;6.15;;
16320;SDS011;8269;50.990;4.494;2023-07-09T06:24:49;9.13;;;5.93;;
16320;SDS011;8269;50.990;4.494;2023-07-09T06:27:14;10.10;;;6.18;;
16320;SDS011;8269;50.990;4.494;2023-07-09T06:29:40;8.02;;;5.97;;
16320;SDS011;8269;50.990;4.494;2023-07-09T06:32:05;9.88;;;6.95;;
16320;SDS011;8269;50.990;4.494;2023-07-09T06:34:31;10.52;;;7.40;;
16320;SDS011;8269;50.990;4.494;2023-07-09T06:36:57;10.75;;;8.07;;
16320;SDS011;8269;50.990;4.494;2023-07-09T06:39:23;12.07;;;9.15;;
16320;SDS011;8269;50.990;4.494;2023-07-09T06:41:49;11.00;;;8.23;;
16320;SDS011;8269;50.990;4.494;2023-07-09T06:44:14;12.25;;;8.75;;
16320;SDS011;8269;50.990;4.494;2023-07-09T06:46:40;10.48;;;8.98;;
16320;SDS011;8269;50.990;4.494;2023-07-09T06:49:06;11.13;;;9.15;;
16320;SDS011;8269;50.990;4.494;2023-07-09T06:51:31;10.88;;;7.85;;
16320;SDS011;8269;50.990;4.494;2023-07-09T06:53:57;12.95;;;9.00;;
16320;SDS011;8269;50.990;4.494;2023-07-09T06:56:23;12.10;;;9.00;;
16320;SDS011;8269;50.990;4.494;2023-07-09T06:58:49;11.43;;;8.63;;
16320;SDS011;8269;50.990;4.494;2023-07-09T07:01:14;13.35;;;10.15;;
16320;SDS011;8269;50.990;4.494;2023-07-09T07:03:40;17.00;;;11.07;;
16320;SDS011;8269;50.990;4.494;2023-07-09T07:06:06;13.52;;;11.63;;
16320;SDS011;8269;50.990;4.494;2023-07-09T07:08:32;15.77;;;12.25;;
16320;SDS011;8269;50.990;4.494;2023-07-09T07:10:59;14.68;;;13.13;;
16320;SDS011;8269;50.990;4.494;2023-07-09T07:13:37;12.90;;;11.23;;
16320;SDS011;8269;50.990;4.494;2023-07-09T07:16:05;13.82;;;11.88;;
16320;SDS011;8269;50.990;4.494;2023-07-09T07:18:32;18.75;;;15.02;;
16320;SDS011;8269;50.990;4.494;2023-07-09T07:20:58;17.90;;;16.02;;
16320;SDS011;8269;50.990;4.494;2023-07-09T07:23:24;18.67;;;16.63;;
16320;SDS011;8269;50.990;4.494;2023-07-09T07:25:50;22.90;;;18.60;;
16320;SDS011;8269;50.990;4.494;2023-07-09T07:28:16;23.92;;;19.67;;
16320;SDS011;8269;50.990;4.494;2023-07-09T07:30:42;24.02;;;20.63;;
16320;SDS011;8269;50.990;4.494;2023-07-09T07:33:09;27.05;;;22.73;;
16320;SDS011;8269;50.990;4.494;2023-07-09T07:35:35;25.33;;;22.63;;
16320;SDS011;8269;50.990;4.494;2023-07-09T07:38:01;30.40;;;25.40;;
16320;SDS011;8269;50.990;4.494;2023-07-09T07:40:27;31.30;;;28.00;;
16320;SDS011;8269;50.990;4.494;2023-07-09T07:42:53;37.03;;;30.30;;
16320;SDS011;8269;50.990;4.494;2023-07-09T07:45:20;33.65;;;30.13;;
16320;SDS011;8269;50.990;4.494;2023-07-09T07:47:46;37.92;;;34.05;;
16320;SDS011;8269;50.990;4.494;2023-07-09T07:50:11;38.25;;;33.80;;
16320;SDS011;8269;50.990;4.494;2023-07-09T07:52:37;40.53;;;36.35;;
16320;SDS011;8269;50.990;4.494;2023-07-09T07:55:06;36.22;;;32.33;;
16320;SDS011;8269;50.990;4.494;2023-07-09T07:57:32;40.03;;;34.50;;
16320;SDS011;8269;50.990;4.494;2023-07-09T07:59:58;39.80;;;35.83;;
16320;SDS011;8269;50.990;4.494;2023-07-09T08:02:24;39.05;;;35.05;;
16320;SDS011;8269;50.990;4.494;2023-07-09T08:04:50;42.83;;;38.53;;
16320;SDS011;8269;50.990;4.494;2023-07-09T08:07:16;42.90;;;38.53;;
16320;SDS011;8269;50.990;4.494;2023-07-09T08:09:44;43.13;;;38.55;;
16320;SDS011;8269;50.990;4.494;2023-07-09T08:12:11;40.05;;;36.00;;
16320;SDS011;8269;50.990;4.494;2023-07-09T08:14:38;41.47;;;37.08;;
16320;SDS011;8269;50.990;4.494;2023-07-09T08:17:05;42.05;;;37.80;;
16320;SDS011;8269;50.990;4.494;2023-07-09T08:19:31;45.35;;;40.65;;
16320;SDS011;8269;50.990;4.494;2023-07-09T08:21:57;42.63;;;38.03;;
16320;SDS011;8269;50.990;4.494;2023-07-09T08:24:23;43.85;;;39.53;;
16320;SDS011;8269;50.990;4.494;2023-07-09T08:26:50;43.97;;;37.00;;
16320;SDS011;8269;50.990;4.494;2023-07-09T08:29:16;37.38;;;33.58;;
16320;SDS011;8269;50.990;4.494;2023-07-09T08:31:42;37.15;;;33.50;;
16320;SDS011;8269;50.990;4.494;2023-07-09T08:34:07;37.78;;;34.10;;
16320;SDS011;8269;50.990;4.494;2023-07-09T08:36:33;40.63;;;36.42;;
16320;SDS011;8269;50.990;4.494;2023-07-09T08:39:00;42.17;;;37.70;;
16320;SDS011;8269;50.990;4.494;2023-07-09T08:44:17;44.70;;;40.40;;
16320;SDS011;8269;50.990;4.494;2023-07-09T08:50:05;40.60;;;36.53;;
16320;SDS011;8269;50.990;4.494;2023-07-09T08:52:38;45.42;;;40.92;;
16320;SDS011;8269;50.990;4.494;2023-07-09T08:55:12;41.28;;;37.13;;
16320;SDS011;8269;50.990;4.494;2023-07-09T08:57:42;45.30;;;40.90;;
16320;SDS011;8269;50.990;4.494;2023-07-09T09:00:14;44.17;;;39.75;;
16320;SDS011;8269;50.990;4.494;2023-07-09T09:05:17;42.08;;;38.00;;
16320;SDS011;8269;50.990;4.494;2023-07-09T09:07:44;39.60;;;34.60;;
16320;SDS011;8269;50.990;4.494;2023-07-09T09:10:21;37.67;;;33.97;;
16320;SDS011;8269;50.990;4.494;2023-07-09T09:13:22;41.20;;;37.05;;
16320;SDS011;8269;50.990;4.494;2023-07-09T09:15:52;37.35;;;33.53;;
16320;SDS011;8269;50.990;4.494;2023-07-09T09:18:25;37.08;;;33.28;;
16320;SDS011;8269;50.990;4.494;2023-07-09T09:20:55;38.47;;;34.45;;
16320;SDS011;8269;50.990;4.494;2023-07-09T09:23:36;35.90;;;32.40;;
16320;SDS011;8269;50.990;4.494;2023-07-09T09:26:14;34.63;;;31.27;;
16320;SDS011;8269;50.990;4.494;2023-07-09T09:29:09;33.13;;;29.70;;
16320;SDS011;8269;50.990;4.494;2023-07-09T09:31:37;33.72;;;30.25;;
16320;SDS011;8269;50.990;4.494;2023-07-09T09:34:03;33.40;;;29.90;;
16320;SDS011;8269;50.990;4.494;2023-07-09T09:36:30;30.90;;;27.58;;
16320;SDS011;8269;50.990;4.494;2023-07-09T09:39:02;30.67;;;27.45;;
16320;SDS011;8269;50.990;4.494;2023-07-09T09:41:30;28.05;;;25.20;;
16320;SDS011;8269;50.990;4.494;2023-07-09T09:44:00;30.10;;;26.98;;
16320;SDS011;8269;50.990;4.494;2023-07-09T09:46:27;26.40;;;23.65;;
16320;SDS011;8269;50.990;4.494;2023-07-09T09:48:54;27.55;;;24.77;;
16320;SDS011;8269;50.990;4.494;2023-07-09T09:51:20;26.52;;;23.17;;
16320;SDS011;8269;50.990;4.494;2023-07-09T09:53:48;22.58;;;20.15;;
16320;SDS011;8269;50.990;4.494;2023-07-09T09:56:19;23.10;;;20.05;;
16320;SDS011;8269;50.990;4.494;2023-07-09T09:58:51;22.50;;;19.90;;
16320;SDS011;8269;50.990;4.494;2023-07-09T10:01:19;20.48;;;18.30;;
16320;SDS011;8269;50.990;4.494;2023-07-09T10:03:47;19.08;;;17.08;;
16320;SDS011;8269;50.990;4.494;2023-07-09T10:06:23;17.85;;;15.85;;
16320;SDS011;8269;50.990;4.494;2023-07-09T10:09:05;19.55;;;16.70;;
16320;SDS011;8269;50.990;4.494;2023-07-09T10:14:19;18.23;;;16.33;;
16320;SDS011;8269;50.990;4.494;2023-07-09T10:16:59;18.42;;;15.50;;
16320;SDS011;8269;50.990;4.494;2023-07-09T10:19:33;17.85;;;15.02;;
16320;SDS011;8269;50.990;4.494;2023-07-09T10:22:07;16.85;;;14.88;;
16320;SDS011;8269;50.990;4.494;2023-07-09T10:35:37;11.65;;;9.40;;
16320;SDS011;8269;50.990;4.494;2023-07-09T10:40:46;10.63;;;8.32;;
16320;SDS011;8269;50.990;4.494;2023-07-09T10:43:24;10.02;;;7.82;;
16320;SDS011;8269;50.990;4.494;2023-07-09T10:45:59;12.63;;;7.90;;
16320;SDS011;8269;50.990;4.494;2023-07-09T10:48:35;12.77;;;7.00;;
16320;SDS011;8269;50.990;4.494;2023-07-09T10:51:15;10.40;;;6.72;;
16320;SDS011;8269;50.990;4.494;2023-07-09T10:53:44;8.65;;;6.25;;
16320;SDS011;8269;50.990;4.494;2023-07-09T10:56:21;8.00;;;5.85;;
16320;SDS011;8269;50.990;4.494;2023-07-09T11:01:50;7.43;;;5.00;;
16320;SDS011;8269;50.990;4.494;2023-07-09T11:06:52;7.15;;;4.88;;
16320;SDS011;8269;50.990;4.494;2023-07-09T11:09:25;8.13;;;4.97;;
16320;SDS011;8269;50.990;4.494;2023-07-09T11:11:54;7.75;;;4.55;;
16320;SDS011;8269;50.990;4.494;2023-07-09T11:14:29;6.53;;;4.82;;
16320;SDS011;8269;50.990;4.494;2023-07-09T11:16:59;7.05;;;4.93;;
16320;SDS011;8269;50.990;4.494;2023-07-09T11:19:25;7.47;;;5.03;;
16320;SDS011;8269;50.990;4.494;2023-07-09T11:22:06;7.40;;;4.55;;
16320;SDS011;8269;50.990;4.494;2023-07-09T11:24:46;7.35;;;4.50;;
16320;SDS011;8269;50.990;4.494;2023-07-09T11:27:19;5.88;;;4.22;;
16320;SDS011;8269;50.990;4.494;2023-07-09T11:32:56;6.63;;;4.47;;
16320;SDS011;8269;50.990;4.494;2023-07-09T11:35:24;7.35;;;5.03;;
16320;SDS011;8269;50.990;4.494;2023-07-09T11:37:53;7.25;;;4.60;;
16320;SDS011;8269;50.990;4.494;2023-07-09T11:40:30;5.72;;;4.50;;
16320;SDS011;8269;50.990;4.494;2023-07-09T11:42:56;6.68;;;4.63;;
16320;SDS011;8269;50.990;4.494;2023-07-09T11:45:32;7.45;;;4.43;;
16320;SDS011;8269;50.990;4.494;2023-07-09T11:50:51;6.15;;;4.50;;
16320;SDS011;8269;50.990;4.494;2023-07-09T11:55:56;8.68;;;4.75;;
16320;SDS011;8269;50.990;4.494;2023-07-09T11:58:22;6.95;;;4.82;;
16320;SDS011;8269;50.990;4.494;2023-07-09T12:00:52;7.50;;;5.35;;
16320;SDS011;8269;50.990;4.494;2023-07-09T12:03:23;8.05;;;4.88;;
16320;SDS011;8269;50.990;4.494;2023-07-09T12:05:55;7.00;;;4.70;;
16320;SDS011;8269;50.990;4.494;2023-07-09T12:08:43;8.02;;;4.72;;
16320;SDS011;8269;50.990;4.494;2023-07-09T12:14:00;8.70;;;4.90;;
16320;SDS011;8269;50.990;4.494;2023-07-09T12:16:36;6.82;;;4.57;;
16320;SDS011;8269;50.990;4.494;2023-07-09T12:19:06;8.35;;;4.22;;
16320;SDS011;8269;50.990;4.494;2023-07-09T12:21:34;9.05;;;5.57;;
16320;SDS011;8269;50.990;4.494;2023-07-09T12:24:03;7.82;;;4.80;;
16320;SDS011;8269;50.990;4.494;2023-07-09T12:26:42;7.55;;;4.78;;
16320;SDS011;8269;50.990;4.494;2023-07-09T12:29:08;7.32;;;4.80;;
16320;SDS011;8269;50.990;4.494;2023-07-09T12:31:35;7.85;;;5.03;;
16320;SDS011;8269;50.990;4.494;2023-07-09T12:34:00;8.40;;;5.07;;
16320;SDS011;8269;50.990;4.494;2023-07-09T12:36:26;6.55;;;4.57;;
16320;SDS011;8269;50.990;4.494;2023-07-09T12:38:56;8.32;;;4.53;;
16320;SDS011;8269;50.990;4.494;2023-07-09T12:41:27;6.43;;;4.47;;
16320;SDS011;8269;50.990;4.494;2023-07-09T12:43:57;8.07;;;5.00;;
16320;SDS011;8269;50.990;4.494;2023-07-09T12:46:24;9.00;;;5.13;;
16320;SDS011;8269;50.990;4.494;2023-07-09T12:48:50;9.68;;;5.82;;
16320;SDS011;8269;50.990;4.494;2023-07-09T12:51:24;19.63;;;8.05;;
16320;SDS011;8269;50.990;4.494;2023-07-09T12:54:00;13.35;;;6.80;;
16320;SDS011;8269;50.990;4.494;2023-07-09T12:56:37;11.13;;;6.63;;
16320;SDS011;8269;50.990;4.494;2023-07-09T12:59:26;13.80;;;6.88;;
16320;SDS011;8269;50.990;4.494;2023-07-09T13:01:54;10.82;;;7.18;;
16320;SDS011;8269;50.990;4.494;2023-07-09T13:04:21;11.45;;;7.82;;
16320;SDS011;8269;50.990;4.494;2023-07-09T13:06:52;12.63;;;9.43;;
16320;SDS011;8269;50.990;4.494;2023-07-09T13:09:22;12.20;;;7.55;;
16320;SDS011;8269;50.990;4.494;2023-07-09T13:11:50;13.80;;;8.00;;
16320;SDS011;8269;50.990;4.494;2023-07-09T13:14:24;11.48;;;7.30;;
16320;SDS011;8269;50.990;4.494;2023-07-09T13:16:50;14.80;;;8.35;;
16320;SDS011;8269;50.990;4.494;2023-07-09T13:19:17;10.77;;;8.38;;
16320;SDS011;8269;50.990;4.494;2023-07-09T13:21:43;11.90;;;8.18;;
16320;SDS011;8269;50.990;4.494;2023-07-09T13:24:17;12.23;;;7.43;;
16320;SDS011;8269;50.990;4.494;2023-07-09T13:26:47;9.52;;;7.25;;
16320;SDS011;8269;50.990;4.494;2023-07-09T13:29:14;12.38;;;7.82;;
16320;SDS011;8269;50.990;4.494;2023-07-09T13:31:42;12.90;;;8.05;;
16320;SDS011;8269;50.990;4.494;2023-07-09T13:34:22;10.15;;;7.00;;
16320;SDS011;8269;50.990;4.494;2023-07-09T13:36:50;8.93;;;6.90;;
16320;SDS011;8269;50.990;4.494;2023-07-09T13:39:18;9.88;;;6.65;;
16320;SDS011;8269;50.990;4.494;2023-07-09T13:41:45;8.15;;;6.18;;
16320;SDS011;8269;50.990;4.494;2023-07-09T13:44:20;9.40;;;6.47;;
16320;SDS011;8269;50.990;4.494;2023-07-09T13:46:52;10.70;;;6.90;;
16320;SDS011;8269;50.990;4.494;2023-07-09T13:49:20;10.48;;;6.70;;
16320;SDS011;8269;50.990;4.494;2023-07-09T13:51:49;10.05;;;6.82;;
16320;SDS011;8269;50.990;4.494;2023-07-09T13:54:17;10.05;;;7.03;;
16320;SDS011;8269;50.990;4.494;2023-07-09T13:56:45;10.45;;;6.63;;
16320;SDS011;8269;50.990;4.494;2023-07-09T13:59:16;10.20;;;7.40;;
16320;SDS011;8269;50.990;4.494;2023-07-09T14:01:48;12.23;;;6.88;;
16320;SDS011;8269;50.990;4.494;2023-07-09T14:04:16;12.45;;;6.93;;
16320;SDS011;8269;50.990;4.494;2023-07-09T14:06:43;11.80;;;6.82;;
16320;SDS011;8269;50.990;4.494;2023-07-09T14:09:10;9.25;;;6.90;;
16320;SDS011;8269;50.990;4.494;2023-07-09T14:11:41;12.38;;;6.85;;
16320;SDS011;8269;50.990;4.494;2023-07-09T14:14:19;10.00;;;6.85;;
16320;SDS011;8269;50.990;4.494;2023-07-09T14:16:48;8.77;;;5.57;;
16320;SDS011;8269;50.990;4.494;2023-07-09T14:19:15;9.93;;;5.63;;
16320;SDS011;8269;50.990;4.494;2023-07-09T14:21:43;7.65;;;5.40;;
16320;SDS011;8269;50.990;4.494;2023-07-09T14:26:48;11.65;;;6.13;;
16320;SDS011;8269;50.990;4.494;2023-07-09T14:29:17;9.30;;;5.80;;
16320;SDS011;8269;50.990;4.494;2023-07-09T14:31:44;9.73;;;5.70;;
16320;SDS011;8269;50.990;4.494;2023-07-09T14:36:38;11.00;;;6.50;;
16320;SDS011;8269;50.990;4.494;2023-07-09T14:39:08;10.70;;;6.22;;
16320;SDS011;8269;50.990;4.494;2023-07-09T14:41:35;9.95;;;5.45;;
16320;SDS011;8269;50.990;4.494;2023-07-09T14:44:00;7.50;;;4.90;;
16320;SDS011;8269;50.990;4.494;2023-07-09T14:46:27;7.50;;;4.82;;
16320;SDS011;8269;50.990;4.494;2023-07-09T14:48:52;7.85;;;4.78;;
16320;SDS011;8269;50.990;4.494;2023-07-09T14:51:18;8.93;;;5.22;;
16320;SDS011;8269;50.990;4.494;2023-07-09T14:53:46;8.65;;;5.20;;
16320;SDS011;8269;50.990;4.494;2023-07-09T14:56:12;9.70;;;5.22;;
16320;SDS011;8269;50.990;4.494;2023-07-09T14:58:39;7.20;;;4.40;;
16320;SDS011;8269;50.990;4.494;2023-07-09T15:01:05;10.20;;;5.25;;
16320;SDS011;8269;50.990;4.494;2023-07-09T15:03:35;7.07;;;4.85;;
16320;SDS011;8269;50.990;4.494;2023-07-09T15:06:01;8.50;;;4.18;;
16320;SDS011;8269;50.990;4.494;2023-07-09T15:08:27;6.20;;;4.15;;
16320;SDS011;8269;50.990;4.494;2023-07-09T15:10:53;9.60;;;4.68;;
16320;SDS011;8269;50.990;4.494;2023-07-09T15:13:25;9.18;;;4.93;;
16320;SDS011;8269;50.990;4.494;2023-07-09T15:15:51;6.85;;;4.50;;
16320;SDS011;8269;50.990;4.494;2023-07-09T15:18:16;6.60;;;4.00;;
16320;SDS011;8269;50.990;4.494;2023-07-09T15:20:52;7.85;;;3.60;;
16320;SDS011;8269;50.990;4.494;2023-07-09T15:23:23;6.57;;;3.80;;
16320;SDS011;8269;50.990;4.494;2023-07-09T15:25:50;5.63;;;3.78;;
16320;SDS011;8269;50.990;4.494;2023-07-09T15:28:16;6.30;;;4.00;;
16320;SDS011;8269;50.990;4.494;2023-07-09T15:30:42;8.55;;;3.92;;
16320;SDS011;8269;50.990;4.494;2023-07-09T15:33:16;7.50;;;4.00;;
16320;SDS011;8269;50.990;4.494;2023-07-09T15:35:44;8.48;;;4.63;;
16320;SDS011;8269;50.990;4.494;2023-07-09T15:38:16;6.28;;;4.28;;
16320;SDS011;8269;50.990;4.494;2023-07-09T15:40:45;6.35;;;3.97;;
16320;SDS011;8269;50.990;4.494;2023-07-09T15:43:13;6.38;;;4.00;;
16320;SDS011;8269;50.990;4.494;2023-07-09T15:45:41;5.78;;;3.60;;
16320;SDS011;8269;50.990;4.494;2023-07-09T15:48:23;8.70;;;3.80;;
16320;SDS011;8269;50.990;4.494;2023-07-09T15:50:52;6.50;;;4.28;;